createdAt,value
2018-05-24T00:00:56.301Z,1.67
2018-05-24T00:03:23.805Z,1.70
2018-05-24T00:05:51.312Z,1.55
2018-05-24T00:08:18.848Z,1.70
2018-05-24T00:10:47.151Z,1.55
2018-05-24T00:13:14.651Z,1.60
2018-05-24T00:15:42.186Z,1.65
2018-05-24T00:18:09.705Z,1.70
2018-05-24T00:20:37.994Z,1.87
2018-05-24T00:23:06.255Z,1.70
2018-05-24T00:25:34.352Z,1.70
2018-05-24T00:28:01.845Z,1.95
2018-05-24T00:30:29.370Z,2.10
2018-05-24T00:32:56.945Z,1.90
2018-05-24T00:35:24.442Z,2.08
2018-05-24T00:37:51.958Z,1.70
2018-05-24T00:40:19.458Z,2.10
2018-05-24T00:42:46.964Z,1.90
2018-05-24T00:45:14.470Z,1.90
2018-05-24T00:47:41.973Z,2.00
2018-05-24T00:50:10.239Z,2.15
2018-05-24T00:52:38.520Z,2.20
2018-05-24T00:55:18.843Z,1.87
2018-05-24T00:57:46.749Z,1.60
2018-05-24T01:00:15.023Z,2.00
2018-05-24T01:02:43.395Z,1.70
2018-05-24T01:05:10.910Z,2.05
2018-05-24T01:07:38.397Z,1.98
2018-05-24T01:10:05.918Z,2.00
2018-05-24T01:12:33.428Z,1.90
2018-05-24T01:15:01.089Z,1.80
2018-05-24T01:17:28.589Z,2.00
2018-05-24T01:19:56.092Z,2.00
2018-05-24T01:22:23.591Z,1.80
2018-05-24T01:24:51.569Z,2.58
2018-05-24T01:27:19.064Z,2.00
2018-05-24T01:29:46.573Z,1.90
2018-05-24T01:32:14.833Z,2.20
2018-05-24T01:34:42.338Z,2.30
2018-05-24T01:37:21.619Z,2.15
2018-05-24T01:39:49.176Z,2.15
2018-05-24T01:42:16.664Z,2.10
2018-05-24T01:44:44.941Z,2.22
2018-05-24T01:47:13.217Z,2.37
2018-05-24T01:49:41.501Z,2.20
2018-05-24T01:52:09.013Z,2.30
2018-05-24T01:54:36.659Z,2.37
2018-05-24T01:57:04.176Z,1.90
2018-05-24T01:59:31.681Z,2.35
2018-05-24T02:01:59.176Z,2.30
2018-05-24T02:04:27.441Z,2.20
2018-05-24T02:06:54.941Z,2.40
2018-05-24T02:09:22.445Z,2.90
2018-05-24T02:11:49.971Z,2.17
2018-05-24T02:14:17.461Z,2.05
2018-05-24T02:16:45.028Z,2.25
2018-05-24T02:19:12.543Z,2.47
2018-05-24T02:21:40.046Z,2.45
2018-05-24T02:24:07.541Z,2.45
2018-05-24T02:26:35.799Z,2.75
2018-05-24T02:29:03.863Z,2.47
2018-05-24T02:31:31.327Z,2.45
2018-05-24T02:33:58.864Z,2.60
2018-05-24T02:36:26.366Z,2.50
2018-05-24T02:38:54.646Z,2.40
2018-05-24T02:41:22.918Z,3.00
2018-05-24T02:43:51.189Z,2.60
2018-05-24T02:46:19.461Z,3.03
2018-05-24T02:48:48.155Z,3.03
2018-05-24T02:51:16.429Z,2.67
2018-05-24T02:53:44.691Z,2.60
2018-05-24T02:56:12.246Z,2.65
2018-05-24T02:58:39.743Z,3.10
2018-05-24T03:01:07.281Z,2.70
2018-05-24T03:03:35.574Z,2.62
2018-05-24T03:06:03.160Z,2.80
2018-05-24T03:08:30.674Z,2.97
2018-05-24T03:10:58.955Z,2.80
2018-05-24T03:13:27.216Z,3.08
2018-05-24T03:15:54.715Z,3.03
2018-05-24T03:18:22.221Z,3.10
2018-05-24T03:20:49.716Z,2.72
2018-05-24T03:23:17.977Z,2.87
2018-05-24T03:25:46.264Z,3.60
2018-05-24T03:28:14.533Z,3.30
2018-05-24T03:30:42.789Z,2.90
2018-05-24T03:33:10.741Z,2.85
2018-05-24T03:35:39.734Z,2.90
2018-05-24T03:38:07.247Z,3.12
2018-05-24T03:40:35.500Z,3.50
2018-05-24T03:43:03.585Z,3.37
2018-05-24T03:45:31.849Z,3.45
2018-05-24T03:47:59.340Z,3.55
2018-05-24T03:50:26.856Z,3.30
2018-05-24T03:52:54.351Z,3.30
2018-05-24T03:55:21.871Z,3.00
2018-05-24T03:57:49.444Z,3.28
2018-05-24T04:00:28.878Z,3.28
2018-05-24T04:03:08.593Z,3.45
2018-05-24T04:05:36.101Z,3.30
2018-05-24T04:08:04.378Z,3.15
2018-05-24T04:10:32.649Z,3.53
2018-05-24T04:13:00.921Z,2.85
2018-05-24T04:15:29.274Z,3.62
2018-05-24T04:17:56.776Z,3.80
2018-05-24T04:20:24.325Z,4.47
2018-05-24T04:22:52.622Z,3.30
2018-05-24T04:25:20.133Z,3.75
2018-05-24T04:27:47.642Z,4.90
2018-05-24T04:30:15.143Z,4.87
2018-05-24T04:32:42.680Z,3.30
2018-05-24T04:35:10.181Z,3.70
2018-05-24T04:37:37.755Z,3.45
2018-05-24T04:40:06.021Z,3.33
2018-05-24T04:42:33.584Z,3.50
2018-05-24T04:45:01.167Z,3.45
2018-05-24T04:47:29.442Z,3.40
2018-05-24T04:49:57.697Z,3.30
2018-05-24T04:52:25.205Z,3.50
2018-05-24T04:54:52.709Z,3.78
2018-05-24T04:57:20.377Z,3.80
2018-05-24T04:59:47.913Z,3.55
2018-05-24T05:02:15.629Z,3.35
2018-05-24T05:04:43.133Z,3.60
2018-05-24T05:07:10.639Z,3.62
2018-05-24T05:09:38.907Z,3.83
2018-05-24T05:12:07.178Z,3.80
2018-05-24T05:14:35.486Z,3.90
2018-05-24T05:17:03.734Z,3.40
2018-05-24T05:19:32.087Z,3.15
2018-05-24T05:21:59.528Z,3.15
2018-05-24T05:24:27.071Z,3.37
2018-05-24T05:26:55.076Z,3.42
2018-05-24T05:29:22.668Z,3.42
2018-05-24T05:31:50.945Z,3.37
2018-05-24T05:34:19.217Z,3.47
2018-05-24T05:36:47.503Z,3.85
2018-05-24T05:39:15.775Z,3.25
2018-05-24T05:41:48.077Z,3.62
2018-05-24T05:44:15.569Z,3.30
2018-05-24T05:46:43.074Z,3.42
2018-05-24T05:49:10.570Z,3.58
2018-05-24T05:51:38.081Z,3.28
2018-05-24T05:54:06.401Z,3.53
2018-05-24T05:56:33.980Z,3.12
2018-05-24T05:59:01.474Z,3.60
2018-05-24T06:01:30.022Z,3.53
2018-05-24T06:03:58.444Z,3.40
2018-05-24T06:06:26.700Z,3.60
2018-05-24T06:08:54.213Z,3.75
2018-05-24T06:11:21.790Z,3.60
2018-05-24T06:13:49.579Z,3.60
2018-05-24T06:16:17.033Z,3.42
2018-05-24T06:18:44.546Z,3.70
2018-05-24T06:21:12.041Z,3.72
2018-05-24T06:23:39.550Z,3.80
2018-05-24T06:26:07.043Z,4.00
2018-05-24T06:28:34.667Z,3.97
2018-05-24T06:31:02.073Z,4.05
2018-05-24T06:33:29.734Z,4.35
2018-05-24T06:35:57.429Z,3.75
2018-05-24T06:38:25.700Z,4.30
2018-05-24T06:40:53.303Z,3.62
2018-05-24T06:43:21.536Z,3.80
2018-05-24T06:45:49.048Z,3.67
2018-05-24T06:48:16.552Z,4.37
2018-05-24T06:50:44.165Z,3.20
2018-05-24T06:53:11.673Z,3.60
2018-05-24T06:55:39.189Z,4.03
2018-05-24T06:58:06.716Z,3.47
2018-05-24T07:00:34.368Z,3.42
2018-05-24T07:03:02.638Z,3.40
2018-05-24T07:05:31.382Z,3.28
2018-05-24T07:07:58.893Z,4.30
2018-05-24T07:10:27.153Z,3.70
2018-05-24T07:12:54.660Z,3.85
2018-05-24T07:15:22.196Z,3.33
2018-05-24T07:17:50.457Z,3.22
2018-05-24T07:20:18.757Z,3.42
2018-05-24T07:22:46.296Z,4.05
2018-05-24T07:25:14.553Z,3.35
2018-05-24T07:27:42.045Z,3.78
2018-05-24T07:30:09.626Z,3.90
2018-05-24T07:32:37.359Z,3.50
2018-05-24T07:35:05.743Z,3.60
2018-05-24T07:37:34.129Z,3.87
2018-05-24T07:40:02.987Z,4.18
2018-05-24T07:42:30.490Z,3.70
2018-05-24T07:44:58.063Z,3.65
2018-05-24T07:47:26.474Z,3.78
2018-05-24T07:49:53.981Z,4.12
2018-05-24T07:52:21.476Z,3.67
2018-05-24T07:54:49.099Z,4.00
2018-05-24T07:57:17.348Z,3.80
2018-05-24T07:59:44.861Z,3.72
2018-05-24T08:02:13.069Z,3.80
2018-05-24T08:04:41.177Z,4.10
2018-05-24T08:07:09.530Z,3.67
2018-05-24T08:09:37.125Z,3.53
2018-05-24T08:12:04.761Z,3.78
2018-05-24T08:14:33.031Z,4.18
2018-05-24T08:17:01.321Z,3.87
2018-05-24T08:19:29.673Z,3.90
2018-05-24T08:21:57.184Z,3.95
2018-05-24T08:24:25.590Z,3.72
2018-05-24T08:26:53.107Z,3.83
2018-05-24T08:29:21.552Z,4.07
2018-05-24T08:31:49.152Z,4.43
2018-05-24T08:34:17.460Z,3.90
2018-05-24T08:36:44.953Z,3.40
2018-05-24T08:39:12.468Z,3.78
2018-05-24T08:41:39.989Z,4.28
2018-05-24T08:44:07.490Z,3.60
2018-05-24T08:46:35.044Z,3.45
2018-05-24T08:49:02.552Z,3.58
2018-05-24T08:51:30.073Z,3.80
2018-05-24T08:53:57.597Z,3.42
2018-05-24T08:56:25.892Z,3.50
2018-05-24T08:58:53.405Z,3.60
2018-05-24T09:01:22.632Z,3.35
2018-05-24T09:03:49.972Z,3.80
2018-05-24T09:06:18.283Z,3.30
2018-05-24T09:08:45.784Z,3.72
2018-05-24T09:11:13.445Z,3.22
2018-05-24T09:13:40.958Z,3.30
2018-05-24T09:16:08.456Z,3.37
2018-05-24T09:18:35.960Z,3.70
2018-05-24T09:21:04.239Z,3.37
2018-05-24T09:23:32.518Z,3.12
2018-05-24T09:26:00.981Z,3.37
2018-05-24T09:28:28.479Z,3.33
2018-05-24T09:30:56.008Z,2.92
2018-05-24T09:33:24.260Z,3.30
2018-05-24T09:35:51.834Z,3.35
2018-05-24T09:38:20.143Z,3.08
2018-05-24T09:40:47.781Z,2.97
2018-05-24T09:43:16.156Z,3.37
2018-05-24T09:45:44.417Z,3.00
2018-05-24T09:48:13.433Z,2.80
2018-05-24T09:50:41.733Z,3.00
2018-05-24T09:53:09.289Z,3.03
2018-05-24T09:55:36.818Z,3.05
2018-05-24T09:58:05.846Z,3.00
2018-05-24T10:00:33.381Z,3.55
2018-05-24T10:03:00.872Z,3.00
2018-05-24T10:05:28.577Z,2.70
2018-05-24T10:07:56.095Z,2.67
2018-05-24T10:10:23.613Z,2.70
2018-05-24T10:12:52.615Z,2.70
2018-05-24T10:15:20.900Z,2.75
2018-05-24T10:17:49.294Z,2.95
2018-05-24T10:20:16.962Z,3.15
2018-05-24T10:22:44.451Z,2.75
2018-05-24T10:25:12.697Z,3.08
2018-05-24T10:27:40.316Z,3.58
2018-05-24T10:30:07.843Z,2.95
2018-05-24T10:32:35.340Z,3.15
2018-05-24T10:35:02.843Z,2.60
2018-05-24T10:37:30.412Z,3.03
2018-05-24T10:39:57.941Z,2.83
2018-05-24T10:42:26.213Z,3.15
2018-05-24T10:44:54.513Z,3.10
2018-05-24T10:47:22.013Z,2.72
2018-05-24T10:49:49.518Z,2.90
2018-05-24T10:52:17.161Z,3.35
2018-05-24T10:54:44.702Z,2.92
2018-05-24T10:57:12.327Z,2.70
2018-05-24T10:59:39.893Z,2.83
2018-05-24T11:02:07.335Z,2.62
2018-05-24T11:04:34.901Z,3.40
2018-05-24T11:07:02.405Z,2.90
2018-05-24T11:09:30.013Z,3.70
2018-05-24T11:11:57.619Z,2.62
2018-05-24T11:14:25.116Z,3.28
2018-05-24T11:16:53.241Z,2.90
2018-05-24T11:19:20.756Z,2.95
2018-05-24T11:21:48.250Z,3.10
2018-05-24T11:24:15.778Z,3.25
2018-05-24T11:26:43.309Z,3.28
2018-05-24T11:29:11.601Z,3.25
2018-05-24T11:31:39.867Z,3.53
2018-05-24T11:34:08.135Z,3.12
2018-05-24T11:36:36.434Z,3.20
2018-05-24T11:39:05.568Z,4.20
2018-05-24T11:41:33.077Z,3.12
2018-05-24T11:44:01.372Z,3.15
2018-05-24T11:46:28.873Z,3.20
2018-05-24T11:48:56.373Z,3.50
2018-05-24T11:51:25.417Z,3.22
2018-05-24T11:53:52.915Z,3.28
2018-05-24T11:56:20.429Z,3.37
2018-05-24T11:58:47.917Z,3.40
2018-05-24T12:01:15.450Z,3.60
2018-05-24T12:03:42.957Z,3.30
2018-05-24T12:06:11.220Z,3.40
2018-05-24T12:08:38.761Z,3.30
2018-05-24T12:11:06.266Z,3.35
2018-05-24T12:13:33.786Z,3.67
2018-05-24T12:16:02.158Z,3.53
2018-05-24T12:18:29.740Z,3.42
2018-05-24T12:20:57.294Z,3.53
2018-05-24T12:23:24.857Z,3.70
2018-05-24T12:25:52.362Z,3.30
2018-05-24T12:28:19.878Z,3.60
2018-05-24T12:30:47.409Z,3.67
2018-05-24T12:33:14.933Z,3.80
2018-05-24T12:35:42.546Z,3.62
2018-05-24T12:38:10.749Z,3.95
2018-05-24T12:40:39.116Z,4.40
2018-05-24T12:43:06.649Z,6.43
2018-05-24T12:45:34.187Z,7.10
2018-05-24T12:48:01.687Z,7.72
2018-05-24T12:50:33.484Z,7.18
2018-05-24T12:53:00.995Z,6.80
2018-05-24T12:55:28.514Z,7.57
2018-05-24T12:57:56.078Z,7.75
2018-05-24T13:00:23.601Z,7.60
2018-05-24T13:02:51.902Z,7.90
2018-05-24T13:05:19.417Z,8.55
2018-05-24T13:07:46.949Z,11.52
2018-05-24T13:10:14.450Z,7.87
2018-05-24T13:12:43.517Z,8.43
2018-05-24T13:15:11.025Z,8.95
2018-05-24T13:17:38.602Z,8.60
2018-05-24T13:20:06.169Z,8.05
2018-05-24T13:22:33.695Z,7.80
2018-05-24T13:25:02.518Z,7.62
2018-05-24T13:27:30.046Z,7.25
2018-05-24T13:29:58.338Z,7.20
2018-05-24T13:32:25.970Z,6.05
2018-05-24T13:34:54.298Z,6.28
2018-05-24T13:37:21.823Z,6.32
2018-05-24T13:39:50.112Z,6.70
2018-05-24T13:42:18.202Z,6.65
2018-05-24T13:44:46.001Z,6.78
2018-05-24T13:47:13.544Z,6.85
2018-05-24T13:49:41.083Z,6.18
2018-05-24T13:52:08.719Z,6.00
2018-05-24T13:54:36.230Z,6.10
2018-05-24T13:57:04.731Z,6.60
2018-05-24T13:59:32.237Z,6.10
2018-05-24T14:01:59.840Z,6.25
2018-05-24T14:04:27.359Z,6.20
2018-05-24T14:06:54.889Z,5.57
2018-05-24T14:09:23.273Z,6.07
2018-05-24T14:11:50.767Z,6.22
2018-05-24T14:14:18.293Z,6.10
2018-05-24T14:16:45.801Z,6.35
2018-05-24T14:19:13.355Z,5.78
2018-05-24T14:21:40.927Z,5.68
2018-05-24T14:24:08.594Z,6.35
2018-05-24T14:26:36.093Z,5.65
2018-05-24T14:29:05.315Z,5.00
2018-05-24T14:31:32.825Z,4.68
2018-05-24T14:34:00.341Z,4.78
2018-05-24T14:36:27.841Z,4.50
2018-05-24T14:38:55.353Z,4.30
2018-05-24T14:41:22.881Z,4.25
2018-05-24T14:43:51.156Z,4.45
2018-05-24T14:46:19.449Z,4.12
2018-05-24T14:48:46.962Z,4.10
2018-05-24T14:51:14.543Z,4.20
2018-05-24T14:53:42.079Z,5.12
2018-05-24T14:56:09.593Z,4.85
2018-05-24T14:58:37.092Z,4.18
2018-05-24T15:01:04.618Z,4.82
2018-05-24T15:03:36.365Z,5.12
2018-05-24T15:06:04.705Z,4.97
2018-05-24T15:08:32.223Z,6.40
2018-05-24T15:10:59.739Z,6.47
2018-05-24T15:13:39.765Z,6.82
2018-05-24T15:16:07.296Z,7.30
2018-05-24T15:18:34.818Z,7.85
2018-05-24T15:21:03.710Z,8.48
2018-05-24T15:23:32.021Z,7.97
2018-05-24T15:25:59.526Z,7.78
2018-05-24T15:28:27.041Z,9.05
2018-05-24T15:30:54.554Z,8.00
2018-05-24T15:33:23.621Z,8.30
2018-05-24T15:35:51.085Z,9.40
2018-05-24T15:38:18.664Z,9.70
2018-05-24T15:40:46.213Z,9.77
2018-05-24T15:43:13.743Z,10.73
2018-05-24T15:45:41.254Z,12.82
2018-05-24T15:48:10.426Z,10.65
2018-05-24T15:50:37.953Z,9.15
2018-05-24T15:53:05.473Z,9.20
2018-05-24T15:55:33.782Z,9.93
2018-05-24T15:58:01.282Z,10.35
2018-05-24T16:00:28.801Z,10.18
2018-05-24T16:02:56.318Z,9.38
2018-05-24T16:05:24.604Z,9.40
2018-05-24T16:07:52.877Z,8.85
2018-05-24T16:10:21.174Z,9.00
2018-05-24T16:12:48.711Z,8.57
2018-05-24T16:15:17.025Z,8.25
2018-05-24T16:17:48.660Z,8.55
2018-05-24T16:20:16.188Z,8.23
2018-05-24T16:22:43.692Z,9.27
2018-05-24T16:25:11.184Z,9.35
2018-05-24T16:27:38.715Z,11.25
2018-05-24T16:30:06.263Z,11.52
2018-05-24T16:32:33.845Z,11.12
2018-05-24T16:35:02.291Z,11.77
2018-05-24T16:37:30.569Z,11.38
2018-05-24T16:39:58.930Z,10.77
2018-05-24T16:42:27.321Z,14.68
2018-05-24T16:44:55.669Z,11.35
2018-05-24T16:47:23.282Z,15.90
2018-05-24T16:49:55.758Z,11.80
2018-05-24T16:52:23.285Z,11.48
2018-05-24T16:54:50.788Z,11.35
2018-05-24T16:57:18.367Z,10.20
2018-05-24T16:59:45.880Z,10.95
2018-05-24T17:02:14.158Z,10.88
2018-05-24T17:04:42.557Z,11.68
2018-05-24T17:07:10.061Z,11.20
2018-05-24T17:09:37.575Z,11.82
2018-05-24T17:12:05.092Z,11.98
2018-05-24T17:14:32.630Z,11.48
2018-05-24T17:17:00.133Z,11.40
2018-05-24T17:19:28.629Z,10.80
2018-05-24T17:21:56.182Z,10.75
2018-05-24T17:24:27.607Z,9.82
2018-05-24T17:26:55.255Z,11.15
2018-05-24T17:29:22.769Z,11.60
2018-05-24T17:31:50.369Z,11.80
2018-05-24T17:34:17.929Z,11.30
2018-05-24T17:36:45.464Z,11.15
2018-05-24T17:39:13.604Z,11.27
2018-05-24T17:41:41.125Z,11.27
2018-05-24T17:44:08.714Z,11.70
2018-05-24T17:46:37.013Z,11.10
2018-05-24T17:49:04.526Z,15.02
2018-05-24T17:51:32.102Z,12.13
2018-05-24T17:54:00.522Z,12.10
2018-05-24T17:56:28.070Z,12.48
2018-05-24T17:58:55.603Z,12.25
2018-05-24T18:01:23.926Z,12.55
2018-05-24T18:03:51.575Z,12.27
2018-05-24T18:06:19.093Z,12.20
2018-05-24T18:08:46.605Z,28.55
2018-05-24T18:11:14.120Z,16.45
2018-05-24T18:13:42.446Z,11.90
2018-05-24T18:16:09.964Z,11.35
2018-05-24T18:18:38.260Z,10.30
2018-05-24T18:21:05.830Z,10.10
2018-05-24T18:23:33.329Z,10.05
2018-05-24T18:26:00.882Z,9.00
2018-05-24T18:28:28.401Z,8.70
2018-05-24T18:30:55.963Z,8.63
2018-05-24T18:33:23.510Z,11.98
2018-05-24T18:35:51.057Z,10.48
2018-05-24T18:38:19.325Z,7.90
2018-05-24T18:40:47.625Z,21.62
2018-05-24T18:43:15.171Z,9.93
2018-05-24T18:45:43.457Z,7.43
2018-05-24T18:48:11.744Z,6.90
2018-05-24T18:50:39.243Z,8.00
2018-05-24T18:53:06.777Z,7.85
2018-05-24T18:55:34.289Z,8.30
2018-05-24T18:58:02.914Z,8.13
2018-05-24T19:00:30.421Z,8.20
2018-05-24T19:02:57.921Z,7.87
2018-05-24T19:05:25.495Z,7.65
2018-05-24T19:07:53.075Z,7.78
2018-05-24T19:10:20.586Z,7.82
2018-05-24T19:12:48.910Z,9.82
2018-05-24T19:15:16.432Z,9.55
2018-05-24T19:17:45.534Z,8.50
2018-05-24T19:20:13.065Z,7.43
2018-05-24T19:22:40.576Z,7.62
2018-05-24T19:25:08.090Z,7.35
2018-05-24T19:27:36.389Z,7.53
2018-05-24T19:30:03.913Z,7.47
2018-05-24T19:32:31.424Z,7.20
2018-05-24T19:34:58.928Z,7.25
2018-05-24T19:37:26.447Z,6.28
2018-05-24T19:39:54.041Z,6.25
2018-05-24T19:42:21.581Z,5.78
2018-05-24T19:44:49.097Z,5.37
2018-05-24T19:47:17.371Z,5.87
2018-05-24T19:49:44.955Z,5.28
2018-05-24T19:52:12.482Z,5.20
2018-05-24T19:54:40.765Z,4.60
2018-05-24T19:57:09.032Z,4.85
2018-05-24T19:59:37.328Z,4.80
2018-05-24T20:02:05.720Z,4.05
2018-05-24T20:04:33.258Z,4.18
2018-05-24T20:07:01.531Z,3.55
2018-05-24T20:09:30.191Z,3.55
2018-05-24T20:11:57.735Z,3.50
2018-05-24T20:14:25.245Z,3.47
2018-05-24T20:16:53.512Z,3.85
2018-05-24T20:19:22.397Z,3.10
2018-05-24T20:21:51.164Z,3.00
2018-05-24T20:24:18.693Z,3.05
2018-05-24T20:26:46.213Z,2.92
2018-05-24T20:29:14.515Z,3.08
2018-05-24T20:31:42.016Z,3.08
2018-05-24T20:34:09.520Z,3.60
2018-05-24T20:36:37.302Z,3.12
2018-05-24T20:39:06.672Z,3.28
2018-05-24T20:41:34.190Z,3.37
2018-05-24T20:44:02.664Z,3.37
2018-05-24T20:46:30.169Z,2.47
2018-05-24T20:48:58.448Z,2.67
2018-05-24T20:51:26.757Z,2.85
2018-05-24T20:53:54.280Z,4.10
2018-05-24T20:56:22.252Z,4.30
2018-05-24T20:58:49.734Z,2.80
2018-05-24T21:01:17.237Z,2.60
2018-05-24T21:03:44.753Z,12.20
2018-05-24T21:06:12.271Z,3.20
2018-05-24T21:08:39.797Z,2.65
2018-05-24T21:11:07.300Z,2.40
2018-05-24T21:13:35.668Z,2.37
2018-05-24T21:16:03.171Z,2.45
2018-05-24T21:18:34.839Z,2.55
2018-05-24T21:21:02.351Z,2.50
2018-05-24T21:23:29.876Z,2.37
2018-05-24T21:25:57.409Z,2.47
2018-05-24T21:28:24.939Z,3.58
2018-05-24T21:30:53.227Z,2.95
2018-05-24T21:33:21.504Z,2.15
2018-05-24T21:35:49.795Z,2.33
2018-05-24T21:38:17.317Z,2.92
2018-05-24T21:40:44.842Z,3.40
2018-05-24T21:43:12.860Z,2.12
2018-05-24T21:45:41.269Z,2.25
2018-05-24T21:48:08.789Z,2.50
2018-05-24T21:50:36.306Z,2.62
2018-05-24T21:53:03.825Z,2.83
2018-05-24T21:55:32.108Z,2.72
2018-05-24T21:57:59.621Z,2.35
2018-05-24T22:00:27.212Z,2.53
2018-05-24T22:02:55.483Z,2.33
2018-05-24T22:05:23.750Z,2.67
2018-05-24T22:07:51.384Z,3.67
2018-05-24T22:10:18.910Z,2.35
2018-05-24T22:12:46.413Z,2.08
2018-05-24T22:15:13.921Z,2.28
2018-05-24T22:17:41.428Z,2.20
2018-05-24T22:20:08.923Z,2.28
2018-05-24T22:22:37.206Z,2.20
2018-05-24T22:25:05.491Z,2.37
2018-05-24T22:27:33.012Z,2.30
2018-05-24T22:30:00.570Z,2.40
2018-05-24T22:32:28.113Z,2.25
2018-05-24T22:34:55.606Z,2.28
2018-05-24T22:37:23.130Z,2.37
2018-05-24T22:39:50.647Z,2.50
2018-05-24T22:42:18.172Z,2.20
2018-05-24T22:44:45.683Z,2.10
2018-05-24T22:47:13.265Z,2.37
2018-05-24T22:49:40.786Z,2.20
2018-05-24T22:52:09.051Z,2.40
2018-05-24T22:54:37.388Z,2.60
2018-05-24T22:57:04.883Z,2.30
2018-05-24T22:59:33.149Z,2.20
2018-05-24T23:02:00.658Z,2.70
2018-05-24T23:04:28.154Z,2.72
2018-05-24T23:06:55.824Z,2.75
2018-05-24T23:09:23.325Z,2.50
2018-05-24T23:11:50.902Z,2.35
2018-05-24T23:14:18.992Z,2.40
2018-05-24T23:16:46.590Z,2.65
2018-05-24T23:19:14.854Z,2.67
2018-05-24T23:21:42.364Z,2.20
2018-05-24T23:24:09.873Z,2.67
2018-05-24T23:26:37.377Z,2.58
2018-05-24T23:29:04.901Z,2.83
2018-05-24T23:31:33.155Z,2.80
2018-05-24T23:34:00.702Z,2.53
2018-05-24T23:36:28.205Z,2.72
2018-05-24T23:38:56.470Z,2.30
2018-05-24T23:41:25.213Z,2.62
2018-05-24T23:43:52.717Z,2.90
2018-05-24T23:46:21.133Z,2.70
2018-05-24T23:48:48.640Z,2.80
2018-05-24T23:51:16.140Z,2.92
2018-05-24T23:53:43.640Z,2.58
2018-05-24T23:56:11.149Z,3.05
2018-05-24T23:58:38.658Z,2.72
